createdAt,value
2023-01-08T00:01:13.445Z,98245.53
2023-01-08T00:03:40.772Z,98233.94
2023-01-08T00:06:11.597Z,98235.84
2023-01-08T00:08:39.045Z,98244.94
2023-01-08T00:11:06.070Z,98237.53
2023-01-08T00:13:32.894Z,98246.84
2023-01-08T00:16:06.720Z,98243.25
2023-01-08T00:18:34.454Z,98238.03
2023-01-08T00:21:01.455Z,98237.91
2023-01-08T00:23:29.540Z,98234.44
2023-01-08T00:25:56.196Z,98232.25
2023-01-08T00:28:23.342Z,98229.78
2023-01-08T00:30:50.738Z,98234.66
2023-01-08T00:33:17.547Z,98230.81
2023-01-08T00:35:44.265Z,98231.66
2023-01-08T00:38:10.962Z,98225.78
2023-01-08T00:40:38.782Z,98220.63
2023-01-08T00:43:05.647Z,98211.16
2023-01-08T00:45:33.168Z,98203.72
2023-01-08T00:48:00.218Z,98200.19
2023-01-08T00:50:27.641Z,98205.69
2023-01-08T00:52:55.375Z,98202.97
2023-01-08T00:55:22.112Z,98197.59
2023-01-08T00:57:48.826Z,98179.53
2023-01-08T01:00:16.414Z,98176.56
2023-01-08T01:02:43.231Z,98173.03
2023-01-08T01:05:11.541Z,98161.09
2023-01-08T01:07:38.345Z,98160.78
2023-01-08T01:10:06.181Z,98168.19
2023-01-08T01:12:32.759Z,98175.13
2023-01-08T01:14:59.431Z,98163.09
2023-01-08T01:17:26.130Z,98158.50
2023-01-08T01:19:53.333Z,98155.94
2023-01-08T01:22:19.948Z,98156.56
2023-01-08T01:24:46.661Z,98144.13
2023-01-08T01:27:13.613Z,98152.84
2023-01-08T01:29:40.734Z,98158.50
2023-01-08T01:32:08.623Z,98164.06
2023-01-08T01:34:35.510Z,98165.72
2023-01-08T01:37:02.403Z,98164.38
2023-01-08T01:39:29.266Z,98168.78
2023-01-08T01:41:56.443Z,98165.88
2023-01-08T01:44:39.209Z,98176.06
2023-01-08T01:47:41.561Z,98168.78
2023-01-08T01:50:33.055Z,98176.94
2023-01-08T01:53:12.230Z,98173.19
2023-01-08T01:55:41.696Z,98176.63
2023-01-08T01:58:28.559Z,98164.31
2023-01-08T02:01:15.608Z,98176.84
2023-01-08T02:03:42.403Z,98166.66
2023-01-08T02:06:44.874Z,98175.53
2023-01-08T02:09:42.073Z,98181.75
2023-01-08T02:12:18.614Z,98172.59
2023-01-08T02:15:05.131Z,98177.00
2023-01-08T02:17:46.704Z,98176.84
2023-01-08T02:20:36.536Z,98178.63
2023-01-08T02:23:15.548Z,98178.00
2023-01-08T02:26:33.581Z,98171.94
2023-01-08T02:29:12.654Z,98166.00
2023-01-08T02:31:41.825Z,98176.50
2023-01-08T02:34:08.939Z,98173.06
2023-01-08T02:36:55.011Z,98173.53
2023-01-08T02:40:03.359Z,98177.13
2023-01-08T02:42:36.240Z,98182.06
2023-01-08T02:45:32.560Z,98167.34
2023-01-08T02:48:08.354Z,98157.94
2023-01-08T02:50:45.092Z,98153.19
2023-01-08T02:53:16.501Z,98160.41
2023-01-08T02:55:46.116Z,98156.28
2023-01-08T02:58:13.312Z,98157.44
2023-01-08T03:00:41.649Z,98147.13
2023-01-08T03:03:35.315Z,98144.97
2023-01-08T03:06:05.271Z,98141.09
2023-01-08T03:08:35.067Z,98143.69
2023-01-08T03:11:11.197Z,98148.44
2023-01-08T03:13:44.196Z,98145.72
2023-01-08T03:16:15.446Z,98157.16
2023-01-08T03:18:47.667Z,98160.97
2023-01-08T03:21:15.277Z,98152.13
2023-01-08T03:23:42.093Z,98155.72
2023-01-08T03:26:10.879Z,98141.28
2023-01-08T03:28:46.732Z,98130.28
2023-01-08T03:31:15.407Z,98118.31
2023-01-08T03:33:43.666Z,98115.22
2023-01-08T03:36:17.308Z,98108.03
2023-01-08T03:38:48.887Z,98108.91
2023-01-08T03:41:19.884Z,98109.66
2023-01-08T03:43:46.799Z,98109.66
2023-01-08T03:46:21.269Z,98110.31
2023-01-08T03:48:49.656Z,98105.22
2023-01-08T03:51:17.120Z,98106.69
2023-01-08T03:53:43.730Z,98103.56
2023-01-08T03:56:10.553Z,98103.41
2023-01-08T03:58:37.241Z,98097.84
2023-01-08T04:01:04.524Z,98095.72
2023-01-08T04:03:31.564Z,98086.50
2023-01-08T04:06:01.768Z,98080.44
2023-01-08T04:08:29.418Z,98079.16
2023-01-08T04:10:56.171Z,98083.59
2023-01-08T04:13:23.093Z,98079.50
2023-01-08T04:15:53.409Z,98067.38
2023-01-08T04:18:20.280Z,98068.00
2023-01-08T04:20:50.432Z,98064.44
2023-01-08T04:23:18.211Z,98063.44
2023-01-08T04:25:45.140Z,98059.88
2023-01-08T04:28:11.972Z,98055.25
2023-01-08T04:30:40.120Z,98062.84
2023-01-08T04:33:06.822Z,98067.09
2023-01-08T04:35:33.788Z,98057.44
2023-01-08T04:38:00.598Z,98060.22
2023-01-08T04:40:27.561Z,98055.97
2023-01-08T04:42:54.600Z,98054.13
2023-01-08T04:45:21.678Z,98064.88
2023-01-08T04:47:48.471Z,98055.03
2023-01-08T04:50:15.402Z,98057.13
2023-01-08T04:52:42.352Z,98056.50
2023-01-08T04:55:09.671Z,98061.59
2023-01-08T04:57:36.685Z,98052.25
2023-01-08T05:00:04.204Z,98051.03
2023-01-08T05:02:32.125Z,98052.69
2023-01-08T05:04:59.035Z,98043.31
2023-01-08T05:07:25.892Z,98052.31
2023-01-08T05:09:53.082Z,98042.53
2023-01-08T05:12:20.033Z,98045.59
2023-01-08T05:14:47.050Z,98039.56
2023-01-08T05:17:14.520Z,98049.84
2023-01-08T05:19:41.541Z,98039.84
2023-01-08T05:22:08.371Z,98040.88
2023-01-08T05:24:36.144Z,98040.34
2023-01-08T05:27:02.765Z,98040.91
2023-01-08T05:29:29.766Z,98040.28
2023-01-08T05:31:56.610Z,98040.38
2023-01-08T05:34:24.040Z,98043.38
2023-01-08T05:36:50.607Z,98044.59
2023-01-08T05:39:17.495Z,98048.38
2023-01-08T05:41:44.162Z,98025.31
2023-01-08T05:44:11.715Z,98030.56
2023-01-08T05:46:38.889Z,98032.69
2023-01-08T05:49:06.952Z,98020.38
2023-01-08T05:51:33.844Z,98013.50
2023-01-08T05:54:01.510Z,98012.22
2023-01-08T05:56:28.161Z,98004.50
2023-01-08T05:58:56.393Z,98009.75
2023-01-08T06:01:23.257Z,98006.00
2023-01-08T06:03:50.388Z,98006.31
2023-01-08T06:06:18.198Z,97999.75
2023-01-08T06:08:46.224Z,98001.41
2023-01-08T06:11:13.414Z,97999.06
2023-01-08T06:13:43.745Z,98001.69
2023-01-08T06:16:12.192Z,97999.13
2023-01-08T06:18:39.833Z,98007.31
2023-01-08T06:21:07.209Z,98009.56
2023-01-08T06:23:33.845Z,98007.44
2023-01-08T06:26:04.338Z,98008.09
2023-01-08T06:28:32.030Z,98010.69
2023-01-08T06:31:00.803Z,98011.69
2023-01-08T06:33:28.445Z,98013.19
2023-01-08T06:35:55.173Z,98010.50
2023-01-08T06:38:23.280Z,98014.25
2023-01-08T06:40:51.721Z,98006.69
2023-01-08T06:43:18.892Z,98013.53
2023-01-08T06:45:53.787Z,98000.97
2023-01-08T06:48:20.949Z,98004.41
2023-01-08T06:50:48.903Z,98011.56
2023-01-08T06:53:15.733Z,98007.38
2023-01-08T06:55:43.882Z,98003.66
2023-01-08T06:58:12.683Z,98012.63
2023-01-08T07:00:40.809Z,98017.69
2023-01-08T07:03:07.696Z,98016.88
2023-01-08T07:05:36.584Z,98017.69
2023-01-08T07:08:03.544Z,98016.56
2023-01-08T07:10:31.554Z,98020.47
2023-01-08T07:12:59.193Z,98015.91
2023-01-08T07:15:26.731Z,98018.88
2023-01-08T07:17:53.892Z,98016.88
2023-01-08T07:20:20.534Z,98026.50
2023-01-08T07:22:47.220Z,98033.22
2023-01-08T07:25:14.551Z,98020.09
2023-01-08T07:27:41.359Z,98019.56
2023-01-08T07:30:18.011Z,98018.50
2023-01-08T07:32:51.444Z,98031.06
2023-01-08T07:35:18.109Z,98025.16
2023-01-08T07:37:45.457Z,98021.41
2023-01-08T07:40:14.062Z,98024.34
2023-01-08T07:42:41.301Z,98032.56
2023-01-08T07:45:08.599Z,98017.16
2023-01-08T07:47:35.374Z,98023.59
2023-01-08T07:50:02.405Z,98025.38
2023-01-08T07:52:30.535Z,98020.47
2023-01-08T07:54:57.169Z,98018.16
2023-01-08T07:57:24.064Z,98016.78
2023-01-08T07:59:51.413Z,98012.31
2023-01-08T08:02:18.309Z,98018.97
2023-01-08T08:04:45.257Z,98015.31
2023-01-08T08:07:12.503Z,98013.16
2023-01-08T08:09:39.321Z,98018.06
2023-01-08T08:12:06.456Z,98004.69
2023-01-08T08:14:34.200Z,97998.13
2023-01-08T08:17:01.351Z,97998.19
2023-01-08T08:19:28.025Z,97994.59
2023-01-08T08:21:55.355Z,97997.19
2023-01-08T08:24:23.035Z,97996.25
2023-01-08T08:26:50.910Z,97995.41
2023-01-08T08:29:17.571Z,97995.78
2023-01-08T08:31:44.667Z,97990.09
2023-01-08T08:34:11.371Z,97986.28
2023-01-08T08:36:38.614Z,97988.41
2023-01-08T08:39:05.609Z,97985.16
2023-01-08T08:41:32.423Z,97983.19
2023-01-08T08:43:59.295Z,97979.94
2023-01-08T08:46:26.744Z,97975.81
2023-01-08T08:48:54.029Z,97983.88
2023-01-08T08:51:21.056Z,97977.00
2023-01-08T08:53:48.720Z,97978.31
2023-01-08T08:56:15.595Z,97976.38
2023-01-08T08:58:42.294Z,97985.84
2023-01-08T09:01:09.118Z,97992.38
2023-01-08T09:03:36.246Z,97987.28
2023-01-08T09:06:03.587Z,97985.84
2023-01-08T09:08:30.663Z,97988.69
2023-01-08T09:10:57.479Z,97993.06
2023-01-08T09:13:24.214Z,97980.81
2023-01-08T09:15:51.130Z,97982.59
2023-01-08T09:18:17.989Z,97987.69
2023-01-08T09:20:44.705Z,97989.31
2023-01-08T09:23:11.465Z,97989.81
2023-01-08T09:25:38.441Z,97997.19
2023-01-08T09:28:07.907Z,97992.16
2023-01-08T09:30:34.847Z,98006.03
2023-01-08T09:33:03.344Z,97998.03
2023-01-08T09:35:31.098Z,97994.91
2023-01-08T09:37:58.544Z,97999.38
2023-01-08T09:40:36.467Z,97991.50
2023-01-08T09:43:06.373Z,97991.97
2023-01-08T09:45:36.483Z,98003.28
2023-01-08T09:48:06.724Z,97997.03
2023-01-08T09:50:35.167Z,97995.25
2023-01-08T09:53:02.754Z,97998.19
2023-01-08T09:55:31.873Z,97996.25
2023-01-08T09:58:02.298Z,98005.75
2023-01-08T10:00:32.428Z,98006.09
2023-01-08T10:02:59.509Z,97993.63
2023-01-08T10:05:27.763Z,97993.78
2023-01-08T10:07:54.805Z,97988.22
2023-01-08T10:10:28.394Z,97975.63
2023-01-08T10:12:56.009Z,97976.94
2023-01-08T10:15:23.138Z,97972.84
2023-01-08T10:18:13.261Z,97975.63
2023-01-08T10:20:40.026Z,97972.38
2023-01-08T10:23:16.365Z,97969.59
2023-01-08T10:25:55.570Z,97971.88
2023-01-08T10:28:31.448Z,97959.94
2023-01-08T10:31:27.820Z,97959.13
2023-01-08T10:33:54.720Z,97940.94
2023-01-08T10:36:24.893Z,97947.31
2023-01-08T10:38:57.531Z,97937.19
2023-01-08T10:41:25.051Z,97939.50
2023-01-08T10:43:58.498Z,97939.13
2023-01-08T10:46:28.602Z,97937.69
2023-01-08T10:48:57.919Z,97940.59
2023-01-08T10:51:27.107Z,97930.47
2023-01-08T10:53:58.968Z,97936.84
2023-01-08T10:56:29.321Z,97938.34
2023-01-08T10:58:57.448Z,97932.63
2023-01-08T11:01:30.262Z,97928.38
2023-01-08T11:04:05.800Z,97918.72
2023-01-08T11:06:34.924Z,97925.72
2023-01-08T11:09:03.872Z,97918.19
2023-01-08T11:11:35.129Z,97916.25
2023-01-08T11:14:04.348Z,97914.28
2023-01-08T11:16:37.157Z,97914.31
2023-01-08T11:19:04.635Z,97914.31
2023-01-08T11:21:33.356Z,97913.97
2023-01-08T11:24:19.336Z,97901.53
2023-01-08T11:26:51.164Z,97916.41
2023-01-08T11:29:46.262Z,97906.44
2023-01-08T11:32:33.667Z,97897.91
2023-01-08T11:35:05.540Z,97893.03
2023-01-08T11:37:46.958Z,97890.41
2023-01-08T11:40:15.344Z,97884.34
2023-01-08T11:43:02.155Z,97879.09
2023-01-08T11:45:44.563Z,97883.00
2023-01-08T11:48:38.557Z,97872.53
2023-01-08T11:51:53.701Z,97879.59
2023-01-08T11:54:32.771Z,97882.84
2023-01-08T11:57:15.903Z,97872.38
2023-01-08T12:00:18.345Z,97864.00
2023-01-08T12:03:00.295Z,97857.47
2023-01-08T12:05:42.431Z,97848.28
2023-01-08T12:08:35.518Z,97847.47
2023-01-08T12:11:32.120Z,97847.94
2023-01-08T12:14:18.378Z,97840.44
2023-01-08T12:17:09.808Z,97825.84
2023-01-08T12:23:12.672Z,97817.47
2023-01-08T12:25:50.238Z,97810.59
2023-01-08T12:32:12.780Z,97807.97
2023-01-08T12:34:56.200Z,97818.28
2023-01-08T12:37:53.399Z,97824.84
2023-01-08T12:40:34.947Z,97810.28
2023-01-08T12:43:06.861Z,97828.78
2023-01-08T12:45:39.845Z,97817.47
2023-01-08T12:48:08.974Z,97809.28
2023-01-08T12:50:58.506Z,97805.34
2023-01-08T12:54:00.037Z,97802.38
2023-01-08T12:56:36.126Z,97786.97
2023-01-08T12:59:29.381Z,97788.63
2023-01-08T13:02:25.939Z,97788.94
2023-01-08T13:04:54.480Z,97787.16
2023-01-08T13:07:25.849Z,97792.72
2023-01-08T13:09:57.077Z,97795.34
2023-01-08T13:12:32.533Z,97795.66
2023-01-08T13:14:59.305Z,97796.66
2023-01-08T13:17:28.398Z,97793.88
2023-01-08T13:19:59.653Z,97791.88
2023-01-08T13:22:29.990Z,97790.72
2023-01-08T13:25:36.729Z,97773.50
2023-01-08T13:28:30.556Z,97775.03
2023-01-08T13:31:09.066Z,97772.03
2023-01-08T13:33:35.990Z,97768.16
2023-01-08T13:36:35.964Z,97766.81
2023-01-08T13:39:22.053Z,97767.78
2023-01-08T13:42:23.554Z,97768.94
2023-01-08T13:44:55.825Z,97765.22
2023-01-08T13:47:33.757Z,97754.72
2023-01-08T13:50:04.398Z,97752.41
2023-01-08T13:52:50.634Z,97757.13
2023-01-08T13:55:20.814Z,97753.38
2023-01-08T13:57:52.551Z,97751.72
2023-01-08T14:00:25.401Z,97751.41
2023-01-08T14:02:55.010Z,97761.22
2023-01-08T14:05:34.016Z,97764.38
2023-01-08T14:08:01.229Z,97769.47
2023-01-08T14:10:29.757Z,97757.97
2023-01-08T14:13:09.117Z,97759.44
2023-01-08T14:15:36.831Z,97747.50
2023-01-08T14:18:05.274Z,97757.16
2023-01-08T14:20:34.744Z,97749.16
2023-01-08T14:23:02.915Z,97744.72
2023-01-08T14:25:29.806Z,97752.06
2023-01-08T14:28:05.647Z,97762.09
2023-01-08T14:30:33.897Z,97745.53
2023-01-08T14:33:01.266Z,97754.72
2023-01-08T14:35:34.598Z,97750.28
2023-01-08T14:38:02.652Z,97741.94
2023-01-08T14:40:35.898Z,97746.97
2023-01-08T14:43:07.530Z,97745.88
2023-01-08T14:45:35.121Z,97737.97
2023-01-08T14:48:25.740Z,97732.06
2023-01-08T14:51:04.591Z,97734.91
2023-01-08T14:53:46.887Z,97735.03
2023-01-08T14:56:16.946Z,97732.94
2023-01-08T14:58:45.567Z,97739.00
2023-01-08T15:01:19.515Z,97750.44
2023-01-08T15:03:48.491Z,97747.19
2023-01-08T15:06:30.296Z,97746.34
2023-01-08T15:08:58.564Z,97742.56
2023-01-08T15:11:32.122Z,97742.09
2023-01-08T15:14:23.777Z,97739.94
2023-01-08T15:20:17.121Z,97725.22
2023-01-08T15:22:45.445Z,97720.44
2023-01-08T15:25:22.587Z,97719.50
2023-01-08T15:27:54.766Z,97706.41
2023-01-08T15:30:30.144Z,97711.44
2023-01-08T15:33:07.157Z,97702.94
2023-01-08T15:35:34.124Z,97703.88
2023-01-08T15:38:00.943Z,97696.38
2023-01-08T15:40:27.678Z,97695.03
2023-01-08T15:43:10.107Z,97694.75
2023-01-08T15:45:38.370Z,97701.47
2023-01-08T15:48:06.159Z,97694.06
2023-01-08T15:50:36.994Z,97693.44
2023-01-08T15:53:07.107Z,97692.78
2023-01-08T15:55:38.468Z,97683.94
2023-01-08T15:58:05.504Z,97675.41
2023-01-08T16:03:07.664Z,97681.81
2023-01-08T16:05:35.598Z,97671.94
2023-01-08T16:08:02.542Z,97664.75
2023-01-08T16:10:29.488Z,97662.28
2023-01-08T16:12:56.524Z,97661.13
2023-01-08T16:15:24.343Z,97666.72
2023-01-08T16:17:51.515Z,97674.09
2023-01-08T16:20:18.683Z,97657.84
2023-01-08T16:22:45.951Z,97665.72
2023-01-08T16:25:13.384Z,97660.00
2023-01-08T16:27:44.010Z,97652.94
2023-01-08T16:30:14.993Z,97649.53
2023-01-08T16:32:42.822Z,97652.59
2023-01-08T16:35:10.917Z,97653.75
2023-01-08T16:37:38.642Z,97654.78
2023-01-08T16:40:06.353Z,97663.91
2023-01-08T16:42:33.366Z,97651.63
2023-01-08T16:45:00.119Z,97649.81
2023-01-08T16:47:27.413Z,97664.72
2023-01-08T16:49:54.608Z,97656.22
2023-01-08T16:52:21.458Z,97660.31
2023-01-08T16:54:48.925Z,97648.53
2023-01-08T16:57:17.749Z,97644.44
2023-01-08T16:59:44.503Z,97642.00
2023-01-08T17:02:12.584Z,97646.56
2023-01-08T17:04:39.299Z,97643.94
2023-01-08T17:07:11.148Z,97646.41
2023-01-08T17:09:39.785Z,97632.47
2023-01-08T17:12:06.869Z,97631.81
2023-01-08T17:14:35.645Z,97634.25
2023-01-08T17:17:04.310Z,97625.22
2023-01-08T17:19:30.981Z,97625.91
2023-01-08T17:22:01.626Z,97621.66
2023-01-08T17:24:28.604Z,97616.06
2023-01-08T17:26:58.263Z,97627.41
2023-01-08T17:29:27.491Z,97622.56
2023-01-08T17:31:54.169Z,97623.03
2023-01-08T17:34:20.929Z,97624.41
2023-01-08T17:36:47.552Z,97621.28
2023-01-08T17:39:14.387Z,97616.16
2023-01-08T17:42:00.058Z,97616.38
2023-01-08T17:44:27.566Z,97612.88
2023-01-08T17:46:55.378Z,97621.84
2023-01-08T17:49:22.866Z,97615.34
2023-01-08T17:51:50.558Z,97618.47
2023-01-08T17:54:17.760Z,97620.00
2023-01-08T17:56:44.975Z,97613.63
2023-01-08T17:59:17.647Z,97611.00
2023-01-08T18:01:45.548Z,97612.19
2023-01-08T18:04:13.785Z,97615.13
2023-01-08T18:06:41.510Z,97610.41
2023-01-08T18:09:10.178Z,97617.44
2023-01-08T18:11:38.987Z,97611.56
2023-01-08T18:14:06.074Z,97605.84
2023-01-08T18:16:33.288Z,97602.22
2023-01-08T18:19:00.620Z,97597.16
2023-01-08T18:21:29.913Z,97600.56
2023-01-08T18:23:56.681Z,97586.38
2023-01-08T18:26:24.218Z,97588.81
2023-01-08T18:28:53.894Z,97583.09
2023-01-08T18:31:21.889Z,97585.38
2023-01-08T18:33:51.997Z,97581.47
2023-01-08T18:36:20.767Z,97582.63
2023-01-08T18:38:48.695Z,97584.25
2023-01-08T18:41:56.667Z,97573.78
2023-01-08T18:44:25.594Z,97575.41
2023-01-08T18:46:53.180Z,97572.00
2023-01-08T18:49:21.597Z,97580.19
2023-01-08T18:51:48.233Z,97569.69
2023-01-08T18:54:16.088Z,97565.16
2023-01-08T18:56:44.201Z,97562.53
2023-01-08T18:59:12.454Z,97561.69
2023-01-08T19:01:40.203Z,97562.22
2023-01-08T19:04:11.688Z,97560.59
2023-01-08T19:06:38.896Z,97559.75
2023-01-08T19:09:05.496Z,97563.50
2023-01-08T19:11:32.221Z,97561.19
2023-01-08T19:14:00.539Z,97555.50
2023-01-08T19:16:27.747Z,97562.06
2023-01-08T19:18:56.515Z,97557.66
2023-01-08T19:21:23.449Z,97547.47
2023-01-08T19:23:50.392Z,97553.22
2023-01-08T19:26:17.291Z,97562.22
2023-01-08T19:28:44.562Z,97554.06
2023-01-08T19:31:14.985Z,97555.72
2023-01-08T19:33:42.846Z,97559.28
2023-01-08T19:36:16.175Z,97554.72
2023-01-08T19:38:44.295Z,97547.56
2023-01-08T19:41:30.537Z,97536.09
2023-01-08T19:43:59.001Z,97528.91
2023-01-08T19:46:26.052Z,97521.06
2023-01-08T19:48:53.206Z,97513.38
2023-01-08T19:51:20.608Z,97507.81
2023-01-08T19:53:47.659Z,97505.41
2023-01-08T19:56:15.265Z,97505.88
2023-01-08T19:58:42.137Z,97500.53
2023-01-08T20:01:13.959Z,97503.66
2023-01-08T20:03:41.405Z,97498.91
2023-01-08T20:06:14.120Z,97495.44
2023-01-08T20:08:40.703Z,97487.91
2023-01-08T20:11:09.717Z,97494.00
2023-01-08T20:13:37.399Z,97480.94
2023-01-08T20:16:06.810Z,97488.28
2023-01-08T20:18:35.659Z,97489.94
2023-01-08T20:21:24.759Z,97473.94
2023-01-08T20:23:59.267Z,97480.97
2023-01-08T20:26:27.879Z,97472.09
2023-01-08T20:28:57.009Z,97470.16
2023-01-08T20:31:33.360Z,97466.56
2023-01-08T20:34:02.190Z,97471.78
2023-01-08T20:36:31.386Z,97461.69
2023-01-08T20:39:01.552Z,97456.28
2023-01-08T20:41:30.295Z,97445.34
2023-01-08T20:43:57.415Z,97445.22
2023-01-08T20:46:29.874Z,97440.34
2023-01-08T20:49:05.764Z,97444.41
2023-01-08T20:51:39.565Z,97447.03
2023-01-08T20:54:08.471Z,97445.25
2023-01-08T20:56:35.188Z,97448.00
2023-01-08T20:59:02.834Z,97441.31
2023-01-08T21:01:36.985Z,97434.09
2023-01-08T21:04:06.313Z,97432.63
2023-01-08T21:06:34.029Z,97433.97
2023-01-08T21:09:07.245Z,97427.41
2023-01-08T21:11:36.377Z,97422.84
2023-01-08T21:14:04.410Z,97421.19
2023-01-08T21:16:32.230Z,97420.84
2023-01-08T21:18:59.555Z,97428.69
2023-01-08T21:21:33.334Z,97420.50
2023-01-08T21:24:05.084Z,97413.50
2023-01-08T21:26:34.377Z,97403.56
2023-01-08T21:29:06.663Z,97392.28
2023-01-08T21:31:34.321Z,97390.50
2023-01-08T21:34:04.173Z,97387.06
2023-01-08T21:36:32.404Z,97390.69
2023-01-08T21:39:00.427Z,97384.00
2023-01-08T21:41:47.533Z,97376.78
2023-01-08T21:44:35.044Z,97367.97
2023-01-08T21:47:03.592Z,97370.91
2023-01-08T21:49:30.335Z,97371.56
2023-01-08T21:52:15.747Z,97367.00
2023-01-08T21:54:42.765Z,97351.66
2023-01-08T21:57:10.062Z,97350.84
2023-01-08T21:59:36.805Z,97345.94
2023-01-08T22:02:04.088Z,97349.38
2023-01-08T22:04:30.841Z,97341.19
2023-01-08T22:06:59.049Z,97340.06
2023-01-08T22:09:25.951Z,97340.41
2023-01-08T22:11:55.016Z,97336.81
2023-01-08T22:14:22.096Z,97330.75
2023-01-08T22:16:48.799Z,97333.22
2023-01-08T22:19:16.386Z,97334.69
2023-01-08T22:21:43.223Z,97329.31
2023-01-08T22:24:09.912Z,97326.03
2023-01-08T22:26:36.844Z,97331.09
2023-01-08T22:29:06.050Z,97331.91
2023-01-08T22:31:33.777Z,97314.59
2023-01-08T22:34:00.847Z,97326.19
2023-01-08T22:36:28.118Z,97314.09
2023-01-08T22:38:54.899Z,97299.75
2023-01-08T22:41:23.442Z,97308.25
2023-01-08T22:43:56.093Z,97303.00
2023-01-08T22:46:23.423Z,97292.25
2023-01-08T22:48:50.307Z,97279.00
2023-01-08T22:51:16.926Z,97284.88
2023-01-08T22:53:44.623Z,97277.88
2023-01-08T22:56:12.605Z,97271.66
2023-01-08T22:58:40.735Z,97266.59
2023-01-08T23:01:16.567Z,97265.13
2023-01-08T23:03:44.993Z,97249.44
2023-01-08T23:06:13.425Z,97247.00
2023-01-08T23:08:41.702Z,97248.50
2023-01-08T23:11:10.370Z,97252.72
2023-01-08T23:13:37.631Z,97247.50
2023-01-08T23:16:05.513Z,97244.22
2023-01-08T23:18:32.322Z,97239.31
2023-01-08T23:21:10.295Z,97231.84
2023-01-08T23:23:37.306Z,97228.91
2023-01-08T23:26:07.162Z,97220.88
2023-01-08T23:28:34.328Z,97216.28
2023-01-08T23:31:01.434Z,97211.25
2023-01-08T23:33:29.006Z,97207.19
2023-01-08T23:35:55.600Z,97201.13
2023-01-08T23:38:22.604Z,97192.97
2023-01-08T23:40:49.439Z,97183.78
2023-01-08T23:43:16.102Z,97184.72
2023-01-08T23:45:42.788Z,97166.41
2023-01-08T23:48:09.995Z,97167.72
2023-01-08T23:50:36.968Z,97166.16
2023-01-08T23:53:03.991Z,97163.56
2023-01-08T23:55:30.772Z,97143.03
2023-01-08T23:57:58.652Z,97143.81
